sensor_id;sensor_type;location;lat;lon;timestamp;P1;durP1;ratioP1;P2;durP2;ratioP2
34242;SDS011;20504;43.214;27.920;2023-04-03T00:01:09;21.88;;;12.70;;
34242;SDS011;20504;43.214;27.920;2023-04-03T00:03:35;18.40;;;12.07;;
34242;SDS011;20504;43.214;27.920;2023-04-03T00:06:02;26.77;;;11.90;;
34242;SDS011;20504;43.214;27.920;2023-04-03T00:10:55;18.67;;;9.57;;
34242;SDS011;20504;43.214;27.920;2023-04-03T00:13:22;14.27;;;9.25;;
34242;SDS011;20504;43.214;27.920;2023-04-03T00:15:48;21.13;;;9.88;;
34242;SDS011;20504;43.214;27.920;2023-04-03T00:18:13;17.50;;;8.77;;
34242;SDS011;20504;43.214;27.920;2023-04-03T00:20:40;12.13;;;8.50;;
34242;SDS011;20504;43.214;27.920;2023-04-03T00:23:05;13.60;;;8.87;;
34242;SDS011;20504;43.214;27.920;2023-04-03T00:25:31;12.07;;;7.87;;
34242;SDS011;20504;43.214;27.920;2023-04-03T00:27:56;11.63;;;7.80;;
34242;SDS011;20504;43.214;27.920;2023-04-03T00:30:22;10.47;;;7.60;;
34242;SDS011;20504;43.214;27.920;2023-04-03T00:32:49;16.02;;;10.13;;
34242;SDS011;20504;43.214;27.920;2023-04-03T00:35:15;16.58;;;10.65;;
34242;SDS011;20504;43.214;27.920;2023-04-03T00:37:41;20.02;;;11.20;;
34242;SDS011;20504;43.214;27.920;2023-04-03T00:40:07;21.33;;;12.25;;
34242;SDS011;20504;43.214;27.920;2023-04-03T00:47:30;21.67;;;13.30;;
34242;SDS011;20504;43.214;27.920;2023-04-03T00:49:56;23.20;;;13.93;;
34242;SDS011;20504;43.214;27.920;2023-04-03T00:52:23;22.27;;;13.85;;
34242;SDS011;20504;43.214;27.920;2023-04-03T00:54:53;22.70;;;14.45;;
34242;SDS011;20504;43.214;27.920;2023-04-03T00:57:22;31.33;;;20.65;;
34242;SDS011;20504;43.214;27.920;2023-04-03T00:59:49;20.33;;;14.48;;
34242;SDS011;20504;43.214;27.920;2023-04-03T01:02:17;26.15;;;14.20;;
34242;SDS011;20504;43.214;27.920;2023-04-03T01:09:39;20.95;;;12.32;;
34242;SDS011;20504;43.214;27.920;2023-04-03T01:14:45;19.25;;;10.88;;
34242;SDS011;20504;43.214;27.920;2023-04-03T01:22:54;13.35;;;9.00;;
34242;SDS011;20504;43.214;27.920;2023-04-03T01:25:30;16.77;;;10.05;;
34242;SDS011;20504;43.214;27.920;2023-04-03T01:27:56;13.43;;;9.57;;
34242;SDS011;20504;43.214;27.920;2023-04-03T01:30:23;17.13;;;9.67;;
34242;SDS011;20504;43.214;27.920;2023-04-03T01:32:55;12.75;;;9.63;;
34242;SDS011;20504;43.214;27.920;2023-04-03T01:35:20;16.10;;;9.60;;
34242;SDS011;20504;43.214;27.920;2023-04-03T01:37:46;18.07;;;9.73;;
34242;SDS011;20504;43.214;27.920;2023-04-03T01:40:11;18.60;;;10.80;;
34242;SDS011;20504;43.214;27.920;2023-04-03T01:42:37;14.70;;;9.40;;
34242;SDS011;20504;43.214;27.920;2023-04-03T01:45:02;12.50;;;7.27;;
34242;SDS011;20504;43.214;27.920;2023-04-03T01:47:28;19.27;;;10.03;;
34242;SDS011;20504;43.214;27.920;2023-04-03T01:49:53;18.17;;;10.10;;
34242;SDS011;20504;43.214;27.920;2023-04-03T01:52:19;20.73;;;11.00;;
34242;SDS011;20504;43.214;27.920;2023-04-03T01:54:44;24.00;;;12.13;;
34242;SDS011;20504;43.214;27.920;2023-04-03T01:57:10;32.50;;;17.07;;
34242;SDS011;20504;43.214;27.920;2023-04-03T01:59:35;37.23;;;21.90;;
34242;SDS011;20504;43.214;27.920;2023-04-03T02:02:00;47.67;;;25.70;;
34242;SDS011;20504;43.214;27.920;2023-04-03T02:04:26;76.03;;;46.10;;
34242;SDS011;20504;43.214;27.920;2023-04-03T02:06:51;79.27;;;54.07;;
34242;SDS011;20504;43.214;27.920;2023-04-03T02:09:17;92.10;;;55.20;;
34242;SDS011;20504;43.214;27.920;2023-04-03T02:11:42;82.90;;;53.67;;
34242;SDS011;20504;43.214;27.920;2023-04-03T02:14:08;66.80;;;44.17;;
34242;SDS011;20504;43.214;27.920;2023-04-03T02:16:33;60.43;;;37.30;;
34242;SDS011;20504;43.214;27.920;2023-04-03T02:18:59;56.07;;;35.87;;
34242;SDS011;20504;43.214;27.920;2023-04-03T02:21:24;60.40;;;34.63;;
34242;SDS011;20504;43.214;27.920;2023-04-03T02:23:51;53.00;;;32.67;;
34242;SDS011;20504;43.214;27.920;2023-04-03T02:26:16;67.57;;;35.00;;
34242;SDS011;20504;43.214;27.920;2023-04-03T02:28:42;65.80;;;39.73;;
34242;SDS011;20504;43.214;27.920;2023-04-03T02:31:08;69.93;;;40.57;;
34242;SDS011;20504;43.214;27.920;2023-04-03T02:33:34;71.50;;;41.95;;
34242;SDS011;20504;43.214;27.920;2023-04-03T02:36:01;73.05;;;41.50;;
34242;SDS011;20504;43.214;27.920;2023-04-03T02:38:28;63.65;;;37.78;;
34242;SDS011;20504;43.214;27.920;2023-04-03T02:40:59;53.63;;;32.60;;
34242;SDS011;20504;43.214;27.920;2023-04-03T02:43:29;47.90;;;27.75;;
34242;SDS011;20504;43.214;27.920;2023-04-03T02:45:55;56.57;;;29.80;;
34242;SDS011;20504;43.214;27.920;2023-04-03T02:48:20;36.27;;;20.97;;
34242;SDS011;20504;43.214;27.920;2023-04-03T02:50:46;45.40;;;28.93;;
34242;SDS011;20504;43.214;27.920;2023-04-03T02:53:11;47.77;;;31.00;;
34242;SDS011;20504;43.214;27.920;2023-04-03T02:55:37;49.00;;;31.97;;
34242;SDS011;20504;43.214;27.920;2023-04-03T02:58:02;46.80;;;30.33;;
34242;SDS011;20504;43.214;27.920;2023-04-03T03:00:28;44.73;;;27.10;;
34242;SDS011;20504;43.214;27.920;2023-04-03T03:02:54;31.13;;;20.77;;
34242;SDS011;20504;43.214;27.920;2023-04-03T03:05:20;49.20;;;26.40;;
34242;SDS011;20504;43.214;27.920;2023-04-03T03:07:45;49.33;;;28.70;;
34242;SDS011;20504;43.214;27.920;2023-04-03T03:10:11;43.47;;;27.13;;
34242;SDS011;20504;43.214;27.920;2023-04-03T03:12:39;41.35;;;25.73;;
34242;SDS011;20504;43.214;27.920;2023-04-03T03:15:05;37.70;;;25.77;;
34242;SDS011;20504;43.214;27.920;2023-04-03T03:17:32;41.95;;;26.25;;
34242;SDS011;20504;43.214;27.920;2023-04-03T03:19:57;35.77;;;25.37;;
34242;SDS011;20504;43.214;27.920;2023-04-03T03:22:23;41.77;;;25.67;;
34242;SDS011;20504;43.214;27.920;2023-04-03T03:24:48;39.43;;;26.10;;
34242;SDS011;20504;43.214;27.920;2023-04-03T03:27:14;51.00;;;29.50;;
34242;SDS011;20504;43.214;27.920;2023-04-03T03:32:06;45.40;;;28.27;;
34242;SDS011;20504;43.214;27.920;2023-04-03T03:34:32;46.90;;;28.67;;
34242;SDS011;20504;43.214;27.920;2023-04-03T03:36:58;48.42;;;26.75;;
34242;SDS011;20504;43.214;27.920;2023-04-03T03:39:24;47.73;;;26.87;;
34242;SDS011;20504;43.214;27.920;2023-04-03T03:41:49;40.27;;;25.17;;
34242;SDS011;20504;43.214;27.920;2023-04-03T03:44:15;39.50;;;25.63;;
34242;SDS011;20504;43.214;27.920;2023-04-03T03:46:40;50.63;;;26.77;;
34242;SDS011;20504;43.214;27.920;2023-04-03T03:49:06;57.63;;;30.50;;
34242;SDS011;20504;43.214;27.920;2023-04-03T03:51:31;48.43;;;31.17;;
34242;SDS011;20504;43.214;27.920;2023-04-03T03:53:57;53.90;;;32.17;;
34242;SDS011;20504;43.214;27.920;2023-04-03T03:56:22;50.50;;;33.23;;
34242;SDS011;20504;43.214;27.920;2023-04-03T03:58:48;54.03;;;32.30;;
34242;SDS011;20504;43.214;27.920;2023-04-03T04:01:14;56.75;;;32.70;;
34242;SDS011;20504;43.214;27.920;2023-04-03T04:03:40;46.80;;;30.37;;
34242;SDS011;20504;43.214;27.920;2023-04-03T04:06:06;34.17;;;21.80;;
34242;SDS011;20504;43.214;27.920;2023-04-03T04:08:31;47.70;;;28.00;;
34242;SDS011;20504;43.214;27.920;2023-04-03T04:10:57;52.30;;;27.53;;
34242;SDS011;20504;43.214;27.920;2023-04-03T04:13:22;43.87;;;25.67;;
34242;SDS011;20504;43.214;27.920;2023-04-03T04:15:48;40.23;;;23.00;;
34242;SDS011;20504;43.214;27.920;2023-04-03T04:18:13;31.17;;;20.70;;
34242;SDS011;20504;43.214;27.920;2023-04-03T04:20:39;30.73;;;18.20;;
34242;SDS011;20504;43.214;27.920;2023-04-03T04:23:05;28.07;;;15.53;;
34242;SDS011;20504;43.214;27.920;2023-04-03T04:25:30;25.60;;;16.27;;
34242;SDS011;20504;43.214;27.920;2023-04-03T04:27:56;31.30;;;16.23;;
34242;SDS011;20504;43.214;27.920;2023-04-03T04:30:23;25.17;;;16.37;;
34242;SDS011;20504;43.214;27.920;2023-04-03T04:32:59;24.23;;;14.23;;
34242;SDS011;20504;43.214;27.920;2023-04-03T04:35:25;28.07;;;14.13;;
34242;SDS011;20504;43.214;27.920;2023-04-03T04:37:50;26.17;;;13.63;;
34242;SDS011;20504;43.214;27.920;2023-04-03T04:40:16;26.30;;;13.60;;
34242;SDS011;20504;43.214;27.920;2023-04-03T04:42:41;22.63;;;13.30;;
34242;SDS011;20504;43.214;27.920;2023-04-03T04:45:07;23.73;;;11.83;;
34242;SDS011;20504;43.214;27.920;2023-04-03T04:47:32;23.63;;;11.20;;
34242;SDS011;20504;43.214;27.920;2023-04-03T04:49:58;28.33;;;11.93;;
34242;SDS011;20504;43.214;27.920;2023-04-03T04:52:23;27.47;;;10.57;;
34242;SDS011;20504;43.214;27.920;2023-04-03T04:54:49;21.27;;;9.97;;
34242;SDS011;20504;43.214;27.920;2023-04-03T04:57:14;24.03;;;10.23;;
34242;SDS011;20504;43.214;27.920;2023-04-03T04:59:40;16.63;;;9.50;;
34242;SDS011;20504;43.214;27.920;2023-04-03T05:02:06;17.87;;;8.93;;
34242;SDS011;20504;43.214;27.920;2023-04-03T05:04:31;20.47;;;9.40;;
34242;SDS011;20504;43.214;27.920;2023-04-03T05:06:58;21.55;;;8.60;;
34242;SDS011;20504;43.214;27.920;2023-04-03T05:09:24;18.10;;;8.35;;
34242;SDS011;20504;43.214;27.920;2023-04-03T05:11:50;9.73;;;5.60;;
34242;SDS011;20504;43.214;27.920;2023-04-03T05:14:15;11.63;;;4.40;;
34242;SDS011;20504;43.214;27.920;2023-04-03T05:16:41;7.80;;;4.17;;
34242;SDS011;20504;43.214;27.920;2023-04-03T05:19:06;6.50;;;3.57;;
34242;SDS011;20504;43.214;27.920;2023-04-03T05:21:32;9.43;;;4.10;;
34242;SDS011;20504;43.214;27.920;2023-04-03T05:23:58;6.13;;;3.63;;
34242;SDS011;20504;43.214;27.920;2023-04-03T05:26:28;11.05;;;5.90;;
34242;SDS011;20504;43.214;27.920;2023-04-03T05:31:20;24.98;;;14.18;;
34242;SDS011;20504;43.214;27.920;2023-04-03T05:33:45;17.97;;;10.90;;
34242;SDS011;20504;43.214;27.920;2023-04-03T05:36:12;11.90;;;6.10;;
34242;SDS011;20504;43.214;27.920;2023-04-03T05:38:38;14.77;;;7.50;;
34242;SDS011;20504;43.214;27.920;2023-04-03T05:41:04;19.37;;;9.53;;
34242;SDS011;20504;43.214;27.920;2023-04-03T05:43:30;15.88;;;9.32;;
34242;SDS011;20504;43.214;27.920;2023-04-03T05:45:56;15.83;;;8.97;;
34242;SDS011;20504;43.214;27.920;2023-04-03T05:48:21;10.90;;;5.97;;
34242;SDS011;20504;43.214;27.920;2023-04-03T05:50:47;9.23;;;5.05;;
34242;SDS011;20504;43.214;27.920;2023-04-03T05:53:17;8.77;;;5.13;;
34242;SDS011;20504;43.214;27.920;2023-04-03T05:55:46;5.20;;;3.72;;
34242;SDS011;20504;43.214;27.920;2023-04-03T05:58:12;8.60;;;3.90;;
34242;SDS011;20504;43.214;27.920;2023-04-03T06:00:37;7.17;;;3.30;;
34242;SDS011;20504;43.214;27.920;2023-04-03T06:03:03;7.00;;;3.60;;
34242;SDS011;20504;43.214;27.920;2023-04-03T06:05:30;6.05;;;3.28;;
34242;SDS011;20504;43.214;27.920;2023-04-03T06:07:55;7.93;;;3.30;;
34242;SDS011;20504;43.214;27.920;2023-04-03T06:10:22;6.22;;;3.67;;
34242;SDS011;20504;43.214;27.920;2023-04-03T06:12:47;5.83;;;3.47;;
34242;SDS011;20504;43.214;27.920;2023-04-03T06:15:13;5.90;;;3.57;;
34242;SDS011;20504;43.214;27.920;2023-04-03T06:17:40;8.65;;;3.20;;
34242;SDS011;20504;43.214;27.920;2023-04-03T06:20:07;15.02;;;6.45;;
34242;SDS011;20504;43.214;27.920;2023-04-03T06:22:33;9.60;;;3.80;;
34242;SDS011;20504;43.214;27.920;2023-04-03T06:24:58;5.10;;;3.43;;
34242;SDS011;20504;43.214;27.920;2023-04-03T06:27:23;6.53;;;3.47;;
34242;SDS011;20504;43.214;27.920;2023-04-03T06:29:49;5.20;;;3.07;;
34242;SDS011;20504;43.214;27.920;2023-04-03T06:32:15;4.37;;;3.27;;
34242;SDS011;20504;43.214;27.920;2023-04-03T06:34:41;6.78;;;3.28;;
34242;SDS011;20504;43.214;27.920;2023-04-03T06:37:13;5.53;;;3.20;;
34242;SDS011;20504;43.214;27.920;2023-04-03T06:39:41;5.22;;;3.05;;
34242;SDS011;20504;43.214;27.920;2023-04-03T06:42:07;6.27;;;3.17;;
34242;SDS011;20504;43.214;27.920;2023-04-03T06:44:32;5.40;;;2.83;;
34242;SDS011;20504;43.214;27.920;2023-04-03T06:46:59;4.95;;;3.20;;
34242;SDS011;20504;43.214;27.920;2023-04-03T06:49:25;5.77;;;3.03;;
34242;SDS011;20504;43.214;27.920;2023-04-03T06:51:51;7.53;;;3.92;;
34242;SDS011;20504;43.214;27.920;2023-04-03T06:54:16;7.17;;;3.73;;
34242;SDS011;20504;43.214;27.920;2023-04-03T06:56:42;11.23;;;6.33;;
34242;SDS011;20504;43.214;27.920;2023-04-03T06:59:07;3.33;;;2.70;;
34242;SDS011;20504;43.214;27.920;2023-04-03T07:01:34;5.30;;;3.38;;
34242;SDS011;20504;43.214;27.920;2023-04-03T07:04:00;5.43;;;3.33;;
34242;SDS011;20504;43.214;27.920;2023-04-03T07:06:25;3.80;;;2.97;;
34242;SDS011;20504;43.214;27.920;2023-04-03T07:08:54;5.95;;;3.63;;
34242;SDS011;20504;43.214;27.920;2023-04-03T07:11:22;7.60;;;5.00;;
34242;SDS011;20504;43.214;27.920;2023-04-03T07:13:48;9.53;;;4.77;;
34242;SDS011;20504;43.214;27.920;2023-04-03T07:16:13;8.97;;;4.50;;
34242;SDS011;20504;43.214;27.920;2023-04-03T07:18:39;10.47;;;5.27;;
34242;SDS011;20504;43.214;27.920;2023-04-03T07:21:05;13.60;;;6.17;;
34242;SDS011;20504;43.214;27.920;2023-04-03T07:23:31;10.65;;;5.97;;
34242;SDS011;20504;43.214;27.920;2023-04-03T07:25:56;14.80;;;5.37;;
34242;SDS011;20504;43.214;27.920;2023-04-03T07:28:22;15.17;;;5.20;;
34242;SDS011;20504;43.214;27.920;2023-04-03T07:30:49;7.13;;;3.33;;
34242;SDS011;20504;43.214;27.920;2023-04-03T07:33:17;3.78;;;2.70;;
34242;SDS011;20504;43.214;27.920;2023-04-03T07:35:44;3.08;;;2.50;;
34242;SDS011;20504;43.214;27.920;2023-04-03T07:38:10;3.90;;;2.90;;
34242;SDS011;20504;43.214;27.920;2023-04-03T07:40:36;5.22;;;3.10;;
34242;SDS011;20504;43.214;27.920;2023-04-03T07:43:02;4.28;;;2.78;;
34242;SDS011;20504;43.214;27.920;2023-04-03T07:45:28;6.63;;;4.63;;
34242;SDS011;20504;43.214;27.920;2023-04-03T07:47:54;5.00;;;2.83;;
34242;SDS011;20504;43.214;27.920;2023-04-03T07:50:20;13.18;;;8.20;;
34242;SDS011;20504;43.214;27.920;2023-04-03T07:52:47;13.67;;;10.73;;
34242;SDS011;20504;43.214;27.920;2023-04-03T07:55:13;8.25;;;6.55;;
34242;SDS011;20504;43.214;27.920;2023-04-03T07:57:39;7.67;;;5.63;;
34242;SDS011;20504;43.214;27.920;2023-04-03T08:00:05;8.00;;;4.93;;
34242;SDS011;20504;43.214;27.920;2023-04-03T08:02:31;9.05;;;5.00;;
34242;SDS011;20504;43.214;27.920;2023-04-03T08:04:57;6.30;;;4.87;;
34242;SDS011;20504;43.214;27.920;2023-04-03T08:07:23;7.05;;;4.35;;
34242;SDS011;20504;43.214;27.920;2023-04-03T08:09:49;6.50;;;4.60;;
34242;SDS011;20504;43.214;27.920;2023-04-03T08:12:14;8.23;;;4.37;;
34242;SDS011;20504;43.214;27.920;2023-04-03T08:14:40;7.30;;;4.80;;
34242;SDS011;20504;43.214;27.920;2023-04-03T08:17:06;7.87;;;4.57;;
34242;SDS011;20504;43.214;27.920;2023-04-03T08:19:34;7.18;;;5.00;;
34242;SDS011;20504;43.214;27.920;2023-04-03T08:22:00;7.38;;;4.57;;
34242;SDS011;20504;43.214;27.920;2023-04-03T08:24:28;8.82;;;5.68;;
34242;SDS011;20504;43.214;27.920;2023-04-03T08:26:54;7.57;;;5.05;;
34242;SDS011;20504;43.214;27.920;2023-04-03T08:29:20;6.22;;;4.90;;
34242;SDS011;20504;43.214;27.920;2023-04-03T08:31:46;5.05;;;4.55;;
34242;SDS011;20504;43.214;27.920;2023-04-03T08:34:13;10.13;;;5.47;;
34242;SDS011;20504;43.214;27.920;2023-04-03T08:36:39;7.47;;;4.97;;
34242;SDS011;20504;43.214;27.920;2023-04-03T08:39:05;7.07;;;4.33;;
34242;SDS011;20504;43.214;27.920;2023-04-03T08:41:43;6.90;;;4.77;;
34242;SDS011;20504;43.214;27.920;2023-04-03T08:47:24;6.55;;;4.90;;
34242;SDS011;20504;43.214;27.920;2023-04-03T08:49:58;7.75;;;5.43;;
34242;SDS011;20504;43.214;27.920;2023-04-03T08:52:36;6.72;;;5.40;;
34242;SDS011;20504;43.214;27.920;2023-04-03T08:55:13;9.43;;;5.85;;
34242;SDS011;20504;43.214;27.920;2023-04-03T08:57:59;6.47;;;5.65;;
34242;SDS011;20504;43.214;27.920;2023-04-03T09:00:32;11.93;;;6.68;;
34242;SDS011;20504;43.214;27.920;2023-04-03T09:03:10;6.65;;;5.28;;
34242;SDS011;20504;43.214;27.920;2023-04-03T09:10:58;7.63;;;6.28;;
34242;SDS011;20504;43.214;27.920;2023-04-03T09:13:30;8.60;;;6.63;;
34242;SDS011;20504;43.214;27.920;2023-04-03T09:16:15;10.00;;;6.40;;
34242;SDS011;20504;43.214;27.920;2023-04-03T09:18:48;6.22;;;5.60;;
34242;SDS011;20504;43.214;27.920;2023-04-03T09:21:34;10.30;;;6.60;;
34242;SDS011;20504;43.214;27.920;2023-04-03T09:24:03;9.85;;;6.10;;
34242;SDS011;20504;43.214;27.920;2023-04-03T09:29:01;8.55;;;7.03;;
34242;SDS011;20504;43.214;27.920;2023-04-03T09:31:38;10.68;;;7.13;;
34242;SDS011;20504;43.214;27.920;2023-04-03T09:34:08;8.73;;;6.93;;
34242;SDS011;20504;43.214;27.920;2023-04-03T09:36:46;9.20;;;7.13;;
34242;SDS011;20504;43.214;27.920;2023-04-03T09:39:16;9.35;;;6.88;;
34242;SDS011;20504;43.214;27.920;2023-04-03T09:41:54;8.75;;;6.82;;
34242;SDS011;20504;43.214;27.920;2023-04-03T09:44:33;8.05;;;6.07;;
34242;SDS011;20504;43.214;27.920;2023-04-03T09:47:24;8.50;;;6.65;;
34242;SDS011;20504;43.214;27.920;2023-04-03T09:49:50;10.00;;;6.80;;
34242;SDS011;20504;43.214;27.920;2023-04-03T09:52:34;7.63;;;6.70;;
34242;SDS011;20504;43.214;27.920;2023-04-03T09:55:06;8.07;;;6.70;;
34242;SDS011;20504;43.214;27.920;2023-04-03T09:57:42;11.70;;;6.93;;
34242;SDS011;20504;43.214;27.920;2023-04-03T10:03:26;12.40;;;8.52;;
34242;SDS011;20504;43.214;27.920;2023-04-03T10:05:57;12.82;;;8.68;;
34242;SDS011;20504;43.214;27.920;2023-04-03T10:08:30;9.77;;;8.52;;
34242;SDS011;20504;43.214;27.920;2023-04-03T10:13:58;11.38;;;7.40;;
34242;SDS011;20504;43.214;27.920;2023-04-03T10:16:27;8.65;;;7.05;;
34242;SDS011;20504;43.214;27.920;2023-04-03T10:28:45;8.10;;;6.60;;
34242;SDS011;20504;43.214;27.920;2023-04-03T10:31:29;9.95;;;7.10;;
34242;SDS011;20504;43.214;27.920;2023-04-03T10:39:58;11.75;;;7.55;;
34242;SDS011;20504;43.214;27.920;2023-04-03T10:48:22;6.85;;;5.70;;
34242;SDS011;20504;43.214;27.920;2023-04-03T10:51:01;9.95;;;5.57;;
34242;SDS011;20504;43.214;27.920;2023-04-03T10:53:42;7.90;;;4.60;;
34242;SDS011;20504;43.214;27.920;2023-04-03T10:59:28;7.15;;;4.60;;
34242;SDS011;20504;43.214;27.920;2023-04-03T11:02:13;6.70;;;4.43;;
34242;SDS011;20504;43.214;27.920;2023-04-03T11:04:53;8.23;;;3.85;;
34242;SDS011;20504;43.214;27.920;2023-04-03T11:07:36;5.22;;;4.18;;
34242;SDS011;20504;43.214;27.920;2023-04-03T11:13:07;6.47;;;4.68;;
34242;SDS011;20504;43.214;27.920;2023-04-03T11:15:39;9.55;;;4.85;;
34242;SDS011;20504;43.214;27.920;2023-04-03T11:18:06;6.88;;;4.55;;
34242;SDS011;20504;43.214;27.920;2023-04-03T11:21:19;12.48;;;5.10;;
34242;SDS011;20504;43.214;27.920;2023-04-03T11:23:39;8.60;;;5.20;;
34242;SDS011;20504;43.214;27.920;2023-04-03T11:26:10;7.32;;;4.45;;
34242;SDS011;20504;43.214;27.920;2023-04-03T11:28:37;6.80;;;4.90;;
34242;SDS011;20504;43.214;27.920;2023-04-03T11:37:02;8.60;;;5.43;;
34242;SDS011;20504;43.214;27.920;2023-04-03T11:39:37;7.95;;;4.68;;
34242;SDS011;20504;43.214;27.920;2023-04-03T11:47:56;6.70;;;4.32;;
34242;SDS011;20504;43.214;27.920;2023-04-03T11:52:56;7.43;;;4.90;;
34242;SDS011;20504;43.214;27.920;2023-04-03T12:13:36;6.68;;;5.50;;
34242;SDS011;20504;43.214;27.920;2023-04-03T12:16:08;8.55;;;5.80;;
34242;SDS011;20504;43.214;27.920;2023-04-03T12:21:12;8.03;;;6.00;;
34242;SDS011;20504;43.214;27.920;2023-04-03T12:26:27;9.90;;;5.70;;
34242;SDS011;20504;43.214;27.920;2023-04-03T12:28:57;12.15;;;7.10;;
34242;SDS011;20504;43.214;27.920;2023-04-03T12:31:25;10.98;;;7.32;;
34242;SDS011;20504;43.214;27.920;2023-04-03T12:37:01;11.75;;;8.68;;
34242;SDS011;20504;43.214;27.920;2023-04-03T12:39:40;13.45;;;8.77;;
34242;SDS011;20504;43.214;27.920;2023-04-03T12:45:30;14.18;;;8.52;;
34242;SDS011;20504;43.214;27.920;2023-04-03T12:48:08;14.50;;;8.88;;
34242;SDS011;20504;43.214;27.920;2023-04-03T12:50:40;13.32;;;8.40;;
34242;SDS011;20504;43.214;27.920;2023-04-03T12:53:15;9.07;;;7.13;;
34242;SDS011;20504;43.214;27.920;2023-04-03T12:55:44;12.82;;;6.70;;
34242;SDS011;20504;43.214;27.920;2023-04-03T12:58:14;10.00;;;7.03;;
34242;SDS011;20504;43.214;27.920;2023-04-03T13:00:42;10.77;;;6.85;;
34242;SDS011;20504;43.214;27.920;2023-04-03T13:03:19;9.27;;;6.10;;
34242;SDS011;20504;43.214;27.920;2023-04-03T13:05:48;9.57;;;6.25;;
34242;SDS011;20504;43.214;27.920;2023-04-03T13:08:14;11.50;;;6.80;;
34242;SDS011;20504;43.214;27.920;2023-04-03T13:11:01;11.77;;;7.22;;
34242;SDS011;20504;43.214;27.920;2023-04-03T13:13:31;10.05;;;6.70;;
34242;SDS011;20504;43.214;27.920;2023-04-03T13:15:57;11.43;;;7.03;;
34242;SDS011;20504;43.214;27.920;2023-04-03T13:21:00;10.43;;;6.93;;
34242;SDS011;20504;43.214;27.920;2023-04-03T13:23:33;11.43;;;7.47;;
34242;SDS011;20504;43.214;27.920;2023-04-03T13:26:01;13.73;;;8.13;;
34242;SDS011;20504;43.214;27.920;2023-04-03T13:28:28;10.90;;;7.78;;
34242;SDS011;20504;43.214;27.920;2023-04-03T13:31:04;15.80;;;7.22;;
34242;SDS011;20504;43.214;27.920;2023-04-03T13:33:31;14.32;;;7.60;;
34242;SDS011;20504;43.214;27.920;2023-04-03T13:38:31;14.73;;;7.43;;
34242;SDS011;20504;43.214;27.920;2023-04-03T13:41:00;12.00;;;7.90;;
34242;SDS011;20504;43.214;27.920;2023-04-03T13:43:36;10.00;;;7.40;;
34242;SDS011;20504;43.214;27.920;2023-04-03T13:46:04;12.98;;;7.97;;
34242;SDS011;20504;43.214;27.920;2023-04-03T13:48:47;13.07;;;7.68;;
34242;SDS011;20504;43.214;27.920;2023-04-03T13:54:00;11.15;;;7.38;;
34242;SDS011;20504;43.214;27.920;2023-04-03T13:56:37;15.48;;;8.00;;
34242;SDS011;20504;43.214;27.920;2023-04-03T14:04:11;14.68;;;7.65;;
34242;SDS011;20504;43.214;27.920;2023-04-03T14:06:40;13.00;;;7.88;;
34242;SDS011;20504;43.214;27.920;2023-04-03T14:09:06;18.87;;;8.63;;
34242;SDS011;20504;43.214;27.920;2023-04-03T14:11:31;13.60;;;9.07;;
34242;SDS011;20504;43.214;27.920;2023-04-03T14:14:01;13.10;;;9.23;;
34242;SDS011;20504;43.214;27.920;2023-04-03T14:16:31;16.15;;;9.18;;
34242;SDS011;20504;43.214;27.920;2023-04-03T14:19:02;19.10;;;9.80;;
34242;SDS011;20504;43.214;27.920;2023-04-03T14:21:28;14.70;;;7.53;;
34242;SDS011;20504;43.214;27.920;2023-04-03T14:23:53;12.40;;;8.03;;
34242;SDS011;20504;43.214;27.920;2023-04-03T14:26:21;12.47;;;7.20;;
34242;SDS011;20504;43.214;27.920;2023-04-03T14:28:50;13.73;;;8.07;;
34242;SDS011;20504;43.214;27.920;2023-04-03T14:31:17;12.85;;;8.45;;
34242;SDS011;20504;43.214;27.920;2023-04-03T14:36:11;12.45;;;7.85;;
34242;SDS011;20504;43.214;27.920;2023-04-03T14:38:41;17.10;;;8.50;;
34242;SDS011;20504;43.214;27.920;2023-04-03T14:41:09;11.45;;;7.97;;
34242;SDS011;20504;43.214;27.920;2023-04-03T14:43:37;14.50;;;8.32;;
34242;SDS011;20504;43.214;27.920;2023-04-03T14:46:04;15.77;;;8.50;;
34242;SDS011;20504;43.214;27.920;2023-04-03T14:48:30;15.18;;;7.95;;
34242;SDS011;20504;43.214;27.920;2023-04-03T14:50:56;15.40;;;10.00;;
34242;SDS011;20504;43.214;27.920;2023-04-03T14:53:22;14.53;;;8.80;;
34242;SDS011;20504;43.214;27.920;2023-04-03T14:55:50;12.48;;;8.23;;
34242;SDS011;20504;43.214;27.920;2023-04-03T14:58:17;12.40;;;8.43;;
34242;SDS011;20504;43.214;27.920;2023-04-03T15:00:45;16.52;;;9.52;;
34242;SDS011;20504;43.214;27.920;2023-04-03T15:03:15;17.70;;;10.10;;
34242;SDS011;20504;43.214;27.920;2023-04-03T15:05:43;16.98;;;9.90;;
34242;SDS011;20504;43.214;27.920;2023-04-03T15:08:28;14.43;;;9.20;;
34242;SDS011;20504;43.214;27.920;2023-04-03T15:10:55;12.55;;;7.18;;
34242;SDS011;20504;43.214;27.920;2023-04-03T15:13:21;11.65;;;7.53;;
34242;SDS011;20504;43.214;27.920;2023-04-03T15:15:47;9.38;;;6.75;;
34242;SDS011;20504;43.214;27.920;2023-04-03T15:18:24;8.65;;;6.32;;
34242;SDS011;20504;43.214;27.920;2023-04-03T15:20:51;9.75;;;6.93;;
34242;SDS011;20504;43.214;27.920;2023-04-03T15:25:44;10.55;;;6.88;;
34242;SDS011;20504;43.214;27.920;2023-04-03T15:28:44;12.32;;;7.68;;
34242;SDS011;20504;43.214;27.920;2023-04-03T15:31:04;10.18;;;6.68;;
34242;SDS011;20504;43.214;27.920;2023-04-03T15:33:30;11.00;;;6.90;;
34242;SDS011;20504;43.214;27.920;2023-04-03T15:35:55;9.40;;;5.85;;
34242;SDS011;20504;43.214;27.920;2023-04-03T15:38:21;10.67;;;6.07;;
34242;SDS011;20504;43.214;27.920;2023-04-03T15:40:47;9.33;;;6.23;;
34242;SDS011;20504;43.214;27.920;2023-04-03T15:43:13;7.77;;;5.93;;
34242;SDS011;20504;43.214;27.920;2023-04-03T15:45:40;8.63;;;7.10;;
34242;SDS011;20504;43.214;27.920;2023-04-03T15:48:06;10.20;;;6.93;;
34242;SDS011;20504;43.214;27.920;2023-04-03T15:50:33;10.27;;;5.70;;
34242;SDS011;20504;43.214;27.920;2023-04-03T15:55:27;9.75;;;6.18;;
34242;SDS011;20504;43.214;27.920;2023-04-03T15:57:54;8.55;;;6.43;;
34242;SDS011;20504;43.214;27.920;2023-04-03T16:00:20;9.20;;;6.53;;
34242;SDS011;20504;43.214;27.920;2023-04-03T16:02:46;8.30;;;6.03;;
34242;SDS011;20504;43.214;27.920;2023-04-03T16:05:14;11.38;;;6.32;;
34242;SDS011;20504;43.214;27.920;2023-04-03T16:07:42;8.02;;;5.50;;
34242;SDS011;20504;43.214;27.920;2023-04-03T16:10:08;9.07;;;6.78;;
34242;SDS011;20504;43.214;27.920;2023-04-03T16:12:35;8.10;;;5.95;;
34242;SDS011;20504;43.214;27.920;2023-04-03T16:15:01;10.67;;;7.53;;
34242;SDS011;20504;43.214;27.920;2023-04-03T16:17:27;9.23;;;6.70;;
34242;SDS011;20504;43.214;27.920;2023-04-03T16:19:53;10.03;;;7.23;;
34242;SDS011;20504;43.214;27.920;2023-04-03T16:22:20;11.10;;;7.25;;
34242;SDS011;20504;43.214;27.920;2023-04-03T16:24:47;15.10;;;7.22;;
34242;SDS011;20504;43.214;27.920;2023-04-03T16:27:14;11.77;;;7.38;;
34242;SDS011;20504;43.214;27.920;2023-04-03T16:29:40;8.47;;;6.40;;
34242;SDS011;20504;43.214;27.920;2023-04-03T16:32:05;9.60;;;6.73;;
34242;SDS011;20504;43.214;27.920;2023-04-03T16:34:31;10.17;;;7.03;;
34242;SDS011;20504;43.214;27.920;2023-04-03T16:36:58;9.65;;;6.47;;
34242;SDS011;20504;43.214;27.920;2023-04-03T16:39:23;9.57;;;6.85;;
34242;SDS011;20504;43.214;27.920;2023-04-03T16:41:49;10.90;;;7.03;;
34242;SDS011;20504;43.214;27.920;2023-04-03T16:44:15;9.10;;;7.43;;